Time;durP1;ratioP1;P1;durP2;ratioP2;P2;SDS_P1;SDS_P2;PMS_P1;PMS_P2;Temp;Humidity;BMP_temperature;BMP_pressure;BME280_temperature;BME280_humidity;BME280_pressure;Samples;Min_cycle;Max_cycle;Signal;HPM_P1;HPM_P2
2022/05/26 00:02:21;;;;;;;3.95;1.08;;;17.00;41.50;;;;;;20839728;28;20057;-59
2022/05/26 00:12:22;;;;;;;2.85;0.95;;;16.70;42.00;;;;;;20840443;28;20103;-61
2022/05/26 00:22:24;;;;;;;3.40;1.05;;;16.70;42.00;;;;;;20838725;28;20524;-60
2022/05/26 00:32:26;;;;;;;2.75;0.85;;;16.60;42.30;;;;;;20837120;28;20065;-61
2022/05/26 00:42:27;;;;;;;4.93;1.08;;;16.50;42.60;;;;;;20836795;28;20103;-60
2022/05/26 00:52:34;;;;;;;4.85;1.02;;;16.50;42.60;;;;;;20868437;28;20498;-59
2022/05/26 01:02:41;;;;;;;3.53;0.90;;;16.30;42.80;;;;;;20835166;28;20065;-60
2022/05/26 01:12:43;;;;;;;3.55;1.13;;;16.20;42.80;;;;;;20834716;28;20045;-59
2022/05/26 01:23:28;;;;;;;2.75;1.00;;;16.20;42.80;;;;;;20834209;28;20128;-59
2022/05/26 01:34:10;;;;;;;3.13;1.00;;;16.10;42.40;;;;;;20824267;28;20045;-58
2022/05/26 01:44:17;;;;;;;2.28;0.60;;;16.00;42.90;;;;;;20580218;28;20074;-58
2022/05/26 01:54:37;;;;;;;3.17;0.80;;;15.80;43.00;;;;;;20579238;28;20038;-58
2022/05/26 02:04:45;;;;;;;5.25;1.02;;;15.70;43.00;;;;;;20578651;28;20125;-58
2022/05/26 02:14:56;;;;;;;2.67;0.70;;;15.60;43.30;;;;;;20788734;28;20469;-59
2022/05/26 02:25:07;;;;;;;2.28;0.73;;;15.50;43.40;;;;;;20829957;28;20099;-60
2022/05/26 02:35:14;;;;;;;2.60;0.63;;;15.40;43.80;;;;;;20830356;28;20049;-60
2022/05/26 02:45:44;;;;;;;3.85;0.88;;;15.40;43.70;;;;;;20830333;28;20107;-59
2022/05/26 02:56:14;;;;;;;2.40;0.90;;;15.40;43.80;;;;;;20834913;28;20046;-60
2022/05/26 03:06:27;;;;;;;4.00;0.75;;;;;;;;;;20876221;28;20045;-59
2022/05/26 03:16:30;;;;;;;3.60;0.93;;;;;;;;;;20844073;28;20045;-57
2022/05/26 03:26:33;;;;;;;4.30;0.97;;;;;;;;;;20843263;28;20490;-58
2022/05/26 03:47:01;;;;;;;2.13;1.10;;;;;;;;;;20841159;28;20053;-59
2022/05/26 03:57:03;;;;;;;4.25;1.10;;;;;;;;;;20839880;28;20056;-60
2022/05/26 04:07:06;;;;;;;2.80;0.93;;;;;;;;;;20839130;28;20057;-59
2022/05/26 04:17:09;;;;;;;2.08;1.00;;;;;;;;;;20838660;28;20103;-58
2022/05/26 04:27:13;;;;;;;1.73;0.90;;;;;;;;;;20839525;28;20351;-59
2022/05/26 04:37:16;;;;;;;2.83;0.95;;;;;;;;;;20837305;28;20049;-60
2022/05/26 04:47:20;;;;;;;3.03;0.85;;;;;;;;;;20837335;28;20532;-61
2022/05/26 04:57:23;;;;;;;2.20;0.80;;;;;;;;;;20836105;28;20057;-58
2022/05/26 05:07:26;;;;;;;1.53;0.70;;;;;;;;;;20835235;28;20049;-59
2022/05/26 05:17:29;;;;;;;2.90;0.82;;;;;;;;;;20834164;28;20049;-60
2022/05/26 05:27:37;;;;;;;2.90;0.93;;;;;;;;;;20833685;28;20139;-58
2022/05/26 05:37:40;;;;;;;2.70;1.13;;;;;;;;;;20832934;28;20405;-58
2022/05/26 05:47:42;;;;;;;4.10;0.80;;;;;;;;;;20831818;28;20052;-59
2022/05/26 05:57:45;;;;;;;2.63;0.90;;;;;;;;;;20829621;28;20053;-59
2022/05/26 06:07:47;;;;;;;1.98;0.77;;;;;;;;;;20831006;28;20049;-58
2022/05/26 06:17:49;;;;;;;3.63;0.98;;;;;;;;;;20829766;28;20049;-59
2022/05/26 06:38:12;;;;;;;3.83;1.02;;;14.70;44.20;;;;;;20829719;28;20537;-60
2022/05/26 06:48:15;;;;;;;3.25;1.02;;;14.70;44.40;;;;;;20828973;28;20054;-59
2022/05/26 06:58:17;;;;;;;2.80;0.80;;;15.20;43.90;;;;;;20828609;28;20626;-60
2022/05/26 07:08:19;;;;;;;2.78;0.95;;;15.70;42.10;;;;;;20827690;28;20057;-58
2022/05/26 07:18:21;;;;;;;5.40;1.20;;;16.20;41.30;;;;;;20828871;28;20074;-58
2022/05/26 07:28:26;;;;;;;5.00;0.95;;;16.80;40.30;;;;;;20827775;28;20049;-60
2022/05/26 07:48:49;;;;;;;3.80;1.00;;;17.70;38.00;;;;;;20840624;28;20049;-59
2022/05/26 07:58:51;;;;;;;1.87;0.80;;;17.90;38.50;;;;;;20840220;28;20512;-59
2022/05/26 08:08:52;;;;;;;4.63;0.90;;;18.40;37.30;;;;;;20839351;28;20089;-60
2022/05/26 08:18:55;;;;;;;3.58;0.80;;;18.70;34.90;;;;;;20839187;28;20502;-61
2022/05/26 08:28:57;;;;;;;11.35;1.15;;;19.10;34.70;;;;;;20837498;28;20060;-60
2022/05/26 08:38:59;;;;;;;2.65;1.13;;;19.10;34.40;;;;;;20837569;28;20049;-59
2022/05/26 08:49:12;;;;;;;2.95;0.70;;;19.30;34.80;;;;;;20835997;28;20140;-60
2022/05/26 08:59:17;;;;;;;2.72;0.80;;;19.60;34.10;;;;;;20834974;28;20052;-60
2022/05/26 09:19:45;;;;;;;3.47;0.70;;;20.00;33.90;;;;;;20833922;28;20053;-60
2022/05/26 09:29:47;;;;;;;2.20;0.70;;;20.20;34.20;;;;;;20833672;28;20133;-60
2022/05/26 09:39:48;;;;;;;1.65;0.65;;;20.60;33.50;;;;;;20836262;28;20174;-59
2022/05/26 09:49:57;;;;;;;6.10;1.00;;;20.70;33.00;;;;;;20851599;28;20046;-61
2022/05/26 09:59:59;;;;;;;2.90;0.98;;;20.70;34.40;;;;;;20888790;28;20057;-64
2022/05/26 10:10:16;;;;;;;2.90;0.98;;;21.10;33.80;;;;;;20912055;28;20060;-62
2022/05/26 10:20:38;;;;;;;3.20;1.00;;;21.30;32.90;;;;;;20892994;28;20045;-61
2022/05/26 10:31:04;;;;;;;3.80;1.05;;;21.50;32.70;;;;;;20852699;28;20144;-57
2022/05/26 10:41:21;;;;;;;2.28;0.90;;;22.20;33.60;;;;;;20827833;28;20132;-58
2022/05/26 10:52:07;;;;;;;4.70;1.05;;;22.30;32.50;;;;;;20828023;28;20049;-59
2022/05/26 11:02:15;;;;;;;5.05;1.10;;;22.50;31.70;;;;;;20827379;28;20414;-56
2022/05/26 11:12:38;;;;;;;4.75;1.13;;;22.70;31.20;;;;;;20827867;28;20459;-57
2022/05/26 11:22:45;;;;;;;;;;;23.00;30.30;;;;;;20843425;28;20512;-58
2022/05/26 11:43:08;;;;;;;2.50;0.80;;;23.00;30.90;;;;;;20840939;28;20049;-56
2022/05/26 11:53:33;;;;;;;0.93;0.57;;;23.00;29.80;;;;;;20839806;28;20061;-55
2022/05/26 12:03:51;;;;;;;4.82;2.10;;;23.10;29.80;;;;;;20838247;28;20088;-56
2022/05/26 12:14:03;;;;;;;3.13;1.15;;;23.30;30.50;;;;;;20839991;28;20053;-58
2022/05/26 12:24:32;;;;;;;3.60;2.03;;;23.40;29.70;;;;;;20837165;28;20410;-57
2022/05/26 12:34:58;;;;;;;1.80;0.88;;;23.50;29.30;;;;;;20838294;28;20056;-59
2022/05/26 12:45:18;;;;;;;4.53;1.33;;;23.70;29.50;;;;;;20836055;28;20060;-59
2022/05/26 12:55:46;;;;;;;2.25;1.40;;;23.80;29.10;;;;;;20834830;28;20205;-56
2022/05/26 13:06:02;;;;;;;1.83;0.70;;;24.00;29.10;;;;;;20834593;28;20056;-69
2022/05/26 13:16:33;;;;;;;1.50;0.80;;;24.00;28.30;;;;;;20834464;28;20053;-62
2022/05/26 13:26:35;;;;;;;1.50;0.60;;;24.00;28.50;;;;;;20833180;28;20049;-63
2022/05/26 13:36:43;;;;;;;3.83;1.00;;;24.00;28.50;;;;;;20831939;28;20056;-67
2022/05/26 13:46:49;;;;;;;3.00;1.25;;;24.20;28.60;;;;;;20830981;28;20052;-66
2022/05/26 13:56:51;;;;;;;1.48;0.70;;;24.50;28.50;;;;;;20812891;28;20127;-66
2022/05/26 14:06:52;;;;;;;2.08;0.65;;;24.60;28.20;;;;;;20831708;28;20058;-68
2022/05/26 14:16:56;;;;;;;1.97;0.63;;;24.70;28.20;;;;;;20831275;28;20045;-67
2022/05/26 14:27:12;;;;;;;2.90;0.93;;;24.80;28.10;;;;;;20829539;28;20840;-67
2022/05/26 14:37:15;;;;;;;2.80;0.80;;;25.10;28.30;;;;;;20829198;28;20050;-66
2022/05/26 14:47:18;;;;;;;1.77;1.05;;;25.20;28.20;;;;;;20828703;28;20179;-63
2022/05/26 14:57:20;;;;;;;2.38;1.00;;;25.30;28.00;;;;;;20845260;28;20054;-63
2022/05/26 15:07:21;;;;;;;6.47;1.10;;;25.60;28.30;;;;;;20843381;28;20049;-64
2022/05/26 15:17:23;;;;;;;2.27;0.83;;;25.60;28.10;;;;;;20843278;28;20041;-65
2022/05/26 15:27:26;;;;;;;;;;;25.80;28.00;;;;;;20844182;28;20057;-55
2022/05/26 15:37:29;;;;;;;19.05;2.00;;;25.80;28.30;;;;;;20841178;28;19921;-58
2022/05/26 15:47:36;;;;;;;1.98;0.90;;;25.90;28.90;;;;;;20914469;28;20104;-56
2022/05/26 15:57:40;;;;;;;3.10;1.08;;;26.00;29.20;;;;;;20931097;28;20056;-57
2022/05/26 16:07:43;;;;;;;3.35;1.20;;;26.10;29.70;;;;;;20921445;28;20095;-62
2022/05/26 16:17:45;;;;;;;4.10;1.40;;;26.20;29.30;;;;;;20920318;28;20362;-61
2022/05/26 16:27:48;;;;;;;1.75;0.93;;;26.40;29.40;;;;;;20921469;28;20538;-63
2022/05/26 16:37:53;;;;;;;2.30;1.25;;;26.40;29.40;;;;;;20919012;28;20045;-57
2022/05/26 16:47:56;;;;;;;2.05;1.38;;;26.30;29.80;;;;;;20918834;28;20060;-56
2022/05/26 16:57:58;;;;;;;2.10;1.20;;;26.40;30.30;;;;;;20915519;28;20049;-61
2022/05/26 17:08:00;;;;;;;2.97;1.42;;;26.40;30.40;;;;;;20916762;28;20059;-56
2022/05/26 17:28:22;;;;;;;2.20;1.02;;;26.40;30.60;;;;;;20914298;28;20412;-57
2022/05/26 17:38:25;;;;;;;2.38;1.00;;;26.30;30.20;;;;;;20914015;28;20487;-59
2022/05/26 17:48:27;;;;;;;1.95;1.00;;;26.40;30.00;;;;;;20912964;28;20056;-57
2022/05/26 17:58:28;;;;;;;1.70;1.00;;;26.50;30.10;;;;;;20912551;28;20053;-57
2022/05/26 18:08:30;;;;;;;4.90;1.25;;;26.40;30.10;;;;;;20912839;28;20053;-60
2022/05/26 18:18:45;;;;;;;1.45;0.90;;;26.30;30.10;;;;;;20911418;28;20053;-59
2022/05/26 18:28:47;;;;;;;2.33;1.20;;;26.50;29.90;;;;;;20908900;28;20048;-58
2022/05/26 18:38:50;;;;;;;1.45;0.88;;;26.50;29.60;;;;;;20909471;28;20053;-60
2022/05/26 18:48:56;;;;;;;2.42;1.10;;;26.40;29.70;;;;;;20908109;28;20053;-59
2022/05/26 18:59:00;;;;;;;5.95;1.33;;;26.40;29.40;;;;;;20909597;28;20060;-59
2022/05/26 19:09:02;;;;;;;1.38;0.88;;;26.40;28.80;;;;;;20909657;28;20060;-65
2022/05/26 19:19:04;;;;;;;2.40;1.00;;;26.20;29.20;;;;;;20909258;28;20076;-71
2022/05/26 19:29:06;;;;;;;1.95;1.08;;;26.20;29.40;;;;;;20908132;28;20052;-62
2022/05/26 19:39:07;;;;;;;4.68;1.23;;;26.10;29.90;;;;;;20917224;28;20603;-58
2022/05/26 19:49:10;;;;;;;3.75;1.00;;;25.90;30.40;;;;;;20921607;28;20247;-56
2022/05/26 19:59:13;;;;;;;;;;;25.80;30.00;;;;;;20922172;28;20048;-61
2022/05/26 20:09:19;;;;;;;1.85;0.88;;;25.60;28.70;;;;;;20921493;28;19974;-62
2022/05/26 20:19:21;;;;;;;1.83;0.80;;;25.50;27.90;;;;;;20921764;28;20394;-62
2022/05/26 20:29:32;;;;;;;1.83;0.82;;;25.30;28.30;;;;;;20920186;28;20045;-61
2022/05/26 20:39:37;;;;;;;2.30;0.80;;;25.10;28.90;;;;;;20919235;28;20081;-62
2022/05/26 20:49:44;;;;;;;2.38;1.00;;;24.90;29.40;;;;;;20918120;28;20138;-61
2022/05/26 20:59:49;;;;;;;1.25;0.73;;;24.70;30.00;;;;;;20916691;28;20053;-62
2022/05/26 21:09:51;;;;;;;3.45;1.25;;;24.40;30.70;;;;;;20917285;28;20106;-62
2022/05/26 21:19:57;;;;;;;1.35;0.60;;;24.40;31.40;;;;;;20916943;28;20082;-61
2022/05/26 21:30:00;;;;;;;2.17;0.70;;;24.10;32.00;;;;;;20915797;28;20055;-62
2022/05/26 21:40:02;;;;;;;2.20;0.80;;;24.00;32.40;;;;;;20916673;28;20103;-62
2022/05/26 21:50:05;;;;;;;1.85;0.93;;;23.70;32.90;;;;;;20915694;28;20053;-62
2022/05/26 22:00:16;;;;;;;2.88;0.90;;;23.60;33.10;;;;;;20913638;28;20190;-62
2022/05/26 22:20:43;;;;;;;4.72;1.00;;;23.40;32.60;;;;;;20912790;28;20041;-61
2022/05/26 22:30:45;;;;;;;2.28;0.70;;;23.20;32.20;;;;;;20912108;28;20215;-61
2022/05/26 22:40:47;;;;;;;1.63;0.63;;;23.10;32.40;;;;;;20911688;28;20390;-61
2022/05/26 22:50:51;;;;;;;2.17;0.80;;;23.00;32.70;;;;;;20911835;28;20053;-60
2022/05/26 23:00:54;;;;;;;1.23;0.82;;;22.70;33.20;;;;;;20910873;28;20075;-61
2022/05/26 23:10:56;;;;;;;3.20;1.00;;;22.60;33.50;;;;;;20914428;28;20055;-62
2022/05/26 23:20:59;;;;;;;1.83;0.70;;;22.50;33.60;;;;;;20925909;28;20127;-62
2022/05/26 23:31:00;;;;;;;1.20;0.60;;;22.50;33.60;;;;;;20926303;28;20425;-61
2022/05/26 23:51:22;;;;;;;4.05;0.98;;;22.10;34.30;;;;;;20923990;28;20048;-61
